createdAt,value
2023-10-12T00:02:16.654Z,2.90
2023-10-12T00:05:02.474Z,2.58
2023-10-12T00:07:35.917Z,2.95
2023-10-12T00:10:15.225Z,2.95
2023-10-12T00:12:49.497Z,2.65
2023-10-12T00:15:30.919Z,2.75
2023-10-12T00:17:59.088Z,3.15
2023-10-12T00:20:32.682Z,2.50
2023-10-12T00:23:12.849Z,3.17
2023-10-12T00:25:48.179Z,2.50
2023-10-12T00:28:20.108Z,2.40
2023-10-12T00:30:51.683Z,2.30
2023-10-12T00:33:22.301Z,2.75
2023-10-12T00:35:50.449Z,2.30
2023-10-12T00:38:19.419Z,2.65
2023-10-12T00:40:49.950Z,2.50
2023-10-12T00:43:17.064Z,3.03
2023-10-12T00:45:44.337Z,2.60
2023-10-12T00:48:17.369Z,2.80
2023-10-12T00:50:52.372Z,2.45
2023-10-12T00:53:32.830Z,2.33
2023-10-12T00:56:03.734Z,2.22
2023-10-12T00:58:32.627Z,2.60
2023-10-12T01:01:05.155Z,2.35
2023-10-12T01:03:37.977Z,2.80
2023-10-12T01:06:16.590Z,2.38
2023-10-12T01:08:48.362Z,1.90
2023-10-12T01:11:22.638Z,2.65
2023-10-12T01:14:10.596Z,2.80
2023-10-12T01:16:46.782Z,2.40
2023-10-12T01:19:22.741Z,2.60
2023-10-12T01:21:53.502Z,2.50
2023-10-12T01:24:20.510Z,2.58
2023-10-12T01:26:51.022Z,2.80
2023-10-12T01:29:22.216Z,2.67
2023-10-12T01:32:09.975Z,2.70
2023-10-12T01:34:40.089Z,3.38
2023-10-12T01:37:22.015Z,2.67
2023-10-12T01:39:59.601Z,2.97
2023-10-12T01:42:43.043Z,2.53
2023-10-12T01:45:20.198Z,2.58
2023-10-12T01:47:53.035Z,2.67
2023-10-12T01:50:19.925Z,2.47
2023-10-12T01:52:47.725Z,2.80
2023-10-12T01:55:18.451Z,2.80
2023-10-12T01:57:57.409Z,2.35
2023-10-12T02:00:28.668Z,2.45
2023-10-12T02:03:16.755Z,2.58
2023-10-12T02:06:00.080Z,2.92
2023-10-12T02:08:34.210Z,2.85
2023-10-12T02:11:12.936Z,2.67
2023-10-12T02:13:43.070Z,2.88
2023-10-12T02:16:14.788Z,2.40
2023-10-12T02:18:42.083Z,2.78
2023-10-12T02:21:08.717Z,2.90
2023-10-12T02:23:39.837Z,2.75
2023-10-12T02:26:25.294Z,2.35
2023-10-12T02:28:55.014Z,2.22
2023-10-12T02:31:22.255Z,2.70
2023-10-12T02:33:49.402Z,2.10
2023-10-12T02:36:19.450Z,2.60
2023-10-12T02:38:46.160Z,2.78
2023-10-12T02:41:15.040Z,2.60
2023-10-12T02:43:44.862Z,2.45
2023-10-12T02:46:19.305Z,2.33
2023-10-12T02:48:48.827Z,2.78
2023-10-12T02:51:18.490Z,2.75
2023-10-12T02:53:45.604Z,2.67
2023-10-12T02:56:13.095Z,2.72
2023-10-12T02:58:46.372Z,3.08
2023-10-12T03:01:21.390Z,2.65
2023-10-12T03:03:51.996Z,2.97
2023-10-12T03:06:33.543Z,2.53
2023-10-12T03:09:15.857Z,2.70
2023-10-12T03:11:43.759Z,2.58
2023-10-12T03:14:28.149Z,2.50
2023-10-12T03:16:55.291Z,2.72
2023-10-12T03:19:22.096Z,2.90
2023-10-12T03:21:49.307Z,2.70
2023-10-12T03:24:16.592Z,2.78
2023-10-12T03:26:50.840Z,3.00
2023-10-12T03:29:20.874Z,2.72
2023-10-12T03:31:48.065Z,2.33
2023-10-12T03:34:18.742Z,2.50
2023-10-12T03:36:49.729Z,2.33
2023-10-12T03:39:27.732Z,2.90
2023-10-12T03:42:10.977Z,2.67
2023-10-12T03:44:58.098Z,2.50
2023-10-12T03:47:32.750Z,2.30
2023-10-12T03:49:59.827Z,2.72
2023-10-12T03:52:41.163Z,2.78
2023-10-12T03:55:08.380Z,2.42
2023-10-12T03:57:35.803Z,2.58
2023-10-12T04:00:06.251Z,2.25
2023-10-12T04:03:02.449Z,2.47
2023-10-12T04:05:32.595Z,2.17
2023-10-12T04:08:18.430Z,2.50
2023-10-12T04:10:48.147Z,2.45
2023-10-12T04:13:30.768Z,2.85
2023-10-12T04:16:09.394Z,2.45
2023-10-12T04:18:42.782Z,3.33
2023-10-12T04:21:18.370Z,2.60
2023-10-12T04:23:48.066Z,2.70
2023-10-12T04:26:14.905Z,2.50
2023-10-12T04:28:43.156Z,2.20
2023-10-12T04:31:09.946Z,2.20
2023-10-12T04:33:42.441Z,3.17
2023-10-12T04:36:09.160Z,2.80
2023-10-12T04:38:45.286Z,2.50
2023-10-12T04:41:24.759Z,2.70
2023-10-12T04:43:55.494Z,2.55
2023-10-12T04:46:26.162Z,2.45
2023-10-12T04:49:17.062Z,2.45
2023-10-12T04:51:51.915Z,2.25
2023-10-12T04:54:25.099Z,2.20
2023-10-12T04:57:18.383Z,2.95
2023-10-12T04:59:52.041Z,1.92
2023-10-12T05:02:37.613Z,2.58
2023-10-12T05:05:16.537Z,2.65
2023-10-12T05:07:58.871Z,2.40
2023-10-12T05:10:33.544Z,2.72
2023-10-12T05:13:06.810Z,2.47
2023-10-12T05:15:44.298Z,2.47
2023-10-12T05:18:11.733Z,3.10
2023-10-12T05:20:44.920Z,2.88
2023-10-12T05:23:13.052Z,3.88
2023-10-12T05:26:09.283Z,2.80
2023-10-12T05:28:48.934Z,2.60
2023-10-12T05:31:16.137Z,3.05
2023-10-12T05:34:01.331Z,2.55
2023-10-12T05:36:30.271Z,2.83
2023-10-12T05:39:13.454Z,3.00
2023-10-12T05:41:41.174Z,2.60
2023-10-12T05:44:10.933Z,2.58
2023-10-12T05:46:37.995Z,2.95
2023-10-12T05:49:14.290Z,2.55
2023-10-12T05:51:46.250Z,2.90
2023-10-12T05:54:16.618Z,2.92
2023-10-12T05:56:44.995Z,2.53
2023-10-12T05:59:15.529Z,2.92
2023-10-12T06:01:50.682Z,2.53
2023-10-12T06:04:21.512Z,3.17
2023-10-12T06:06:49.759Z,3.03
2023-10-12T06:09:22.338Z,2.80
2023-10-12T06:11:50.390Z,2.55
2023-10-12T06:14:21.792Z,2.80
2023-10-12T06:16:49.158Z,3.25
2023-10-12T06:19:24.871Z,2.85
2023-10-12T06:21:52.740Z,3.05
2023-10-12T06:24:22.809Z,2.67
2023-10-12T06:26:49.971Z,2.55
2023-10-12T06:29:26.200Z,2.50
2023-10-12T06:31:53.761Z,2.45
2023-10-12T06:34:21.672Z,2.53
2023-10-12T06:36:59.627Z,2.72
2023-10-12T06:39:26.956Z,2.55
2023-10-12T06:41:53.721Z,2.95
2023-10-12T06:44:29.881Z,2.97
2023-10-12T06:46:59.149Z,2.40
2023-10-12T06:49:34.083Z,2.67
2023-10-12T06:52:05.050Z,2.50
2023-10-12T06:54:33.977Z,2.88
2023-10-12T06:57:19.598Z,2.83
2023-10-12T06:59:55.476Z,2.70
2023-10-12T07:02:25.924Z,3.28
2023-10-12T07:04:56.023Z,3.38
2023-10-12T07:07:31.614Z,3.42
2023-10-12T07:10:10.886Z,3.55
2023-10-12T07:12:50.538Z,4.07
2023-10-12T07:15:22.904Z,3.38
2023-10-12T07:17:53.011Z,4.28
2023-10-12T07:20:33.168Z,3.35
2023-10-12T07:23:11.941Z,3.40
2023-10-12T07:25:39.119Z,3.60
2023-10-12T07:28:07.057Z,3.90
2023-10-12T07:30:37.874Z,3.85
2023-10-12T07:33:08.930Z,3.47
2023-10-12T07:35:36.476Z,3.13
2023-10-12T07:38:14.584Z,3.58
2023-10-12T07:40:53.893Z,3.30
2023-10-12T07:43:21.562Z,2.75
2023-10-12T07:45:51.033Z,3.33
2023-10-12T07:48:42.063Z,3.30
2023-10-12T07:51:17.084Z,4.07
2023-10-12T07:53:44.863Z,4.03
2023-10-12T07:56:17.583Z,4.45
2023-10-12T07:58:45.721Z,3.58
2023-10-12T08:01:40.471Z,3.92
2023-10-12T08:04:21.206Z,4.93
2023-10-12T08:06:50.375Z,5.57
2023-10-12T08:09:26.416Z,6.22
2023-10-12T08:11:55.233Z,3.47
2023-10-12T08:14:25.496Z,4.38
2023-10-12T08:17:11.543Z,4.45
2023-10-12T08:19:43.906Z,4.90
2023-10-12T08:22:18.828Z,4.38
2023-10-12T08:24:47.703Z,3.45
2023-10-12T08:27:14.747Z,3.75
2023-10-12T08:29:41.508Z,3.75
2023-10-12T08:32:08.352Z,3.28
2023-10-12T08:34:38.618Z,3.85
2023-10-12T08:37:12.205Z,3.25
2023-10-12T08:39:51.070Z,3.70
2023-10-12T08:42:24.060Z,3.75
2023-10-12T08:44:51.630Z,4.53
2023-10-12T08:47:32.843Z,4.15
2023-10-12T08:50:23.423Z,4.53
2023-10-12T08:52:53.462Z,4.43
2023-10-12T08:55:22.683Z,4.20
2023-10-12T08:58:13.512Z,3.85
2023-10-12T09:00:42.196Z,3.17
2023-10-12T09:03:25.999Z,3.28
2023-10-12T09:05:53.782Z,3.80
2023-10-12T09:08:20.860Z,3.60
2023-10-12T09:10:54.199Z,3.33
2023-10-12T09:13:20.945Z,3.53
2023-10-12T09:15:48.503Z,3.75
2023-10-12T09:18:18.187Z,3.63
2023-10-12T09:21:15.014Z,3.83
2023-10-12T09:24:00.425Z,3.92
2023-10-12T09:26:38.390Z,3.72
2023-10-12T09:29:06.664Z,3.17
2023-10-12T09:31:40.444Z,3.72
2023-10-12T09:34:11.465Z,3.38
2023-10-12T09:36:39.550Z,3.45
2023-10-12T09:39:13.364Z,3.92
2023-10-12T09:41:41.601Z,3.70
2023-10-12T09:44:09.003Z,3.40
2023-10-12T09:46:35.834Z,3.53
2023-10-12T09:49:22.458Z,3.78
2023-10-12T09:51:55.906Z,3.78
2023-10-12T09:54:29.333Z,3.15
2023-10-12T09:57:00.734Z,3.30
2023-10-12T09:59:30.905Z,4.10
2023-10-12T10:02:12.079Z,3.47
2023-10-12T10:04:45.676Z,3.92
2023-10-12T10:07:27.940Z,3.92
2023-10-12T10:10:00.401Z,3.90
2023-10-12T10:12:32.609Z,3.72
2023-10-12T10:15:11.821Z,3.63
2023-10-12T10:17:48.772Z,3.55
2023-10-12T10:20:21.637Z,3.63
2023-10-12T10:22:57.818Z,3.35
2023-10-12T10:25:38.502Z,3.33
2023-10-12T10:28:09.142Z,4.07
2023-10-12T10:30:42.646Z,3.78
2023-10-12T10:33:14.522Z,3.58
2023-10-12T10:35:58.127Z,3.72
2023-10-12T10:38:31.515Z,3.72
2023-10-12T10:41:07.043Z,3.38
2023-10-12T10:43:39.977Z,3.90
2023-10-12T10:46:18.201Z,3.28
2023-10-12T10:51:29.526Z,3.70
2023-10-12T10:53:59.825Z,3.65
2023-10-12T10:56:38.989Z,3.78
2023-10-12T10:59:13.431Z,3.88
2023-10-12T11:01:48.134Z,3.72
2023-10-12T11:04:33.712Z,3.88
2023-10-12T11:07:05.098Z,4.18
2023-10-12T11:09:48.870Z,3.60
2023-10-12T11:12:15.771Z,3.47
2023-10-12T11:14:53.614Z,3.58
2023-10-12T11:17:21.662Z,4.53
2023-10-12T11:19:51.358Z,3.70
2023-10-12T11:22:19.402Z,4.13
2023-10-12T11:24:47.060Z,3.80
2023-10-12T11:27:29.532Z,3.58
2023-10-12T11:29:58.837Z,4.22
2023-10-12T11:32:25.743Z,3.67
2023-10-12T11:34:53.877Z,4.22
2023-10-12T11:37:21.444Z,3.55
2023-10-12T11:39:48.666Z,4.20
2023-10-12T11:42:15.732Z,3.55
2023-10-12T11:44:45.871Z,3.72
2023-10-12T11:47:14.648Z,3.97
2023-10-12T11:49:57.325Z,4.00
2023-10-12T11:52:31.998Z,3.88
2023-10-12T11:55:02.790Z,4.35
2023-10-12T11:57:29.545Z,3.67
2023-10-12T11:59:57.873Z,3.63
2023-10-12T12:02:25.487Z,3.67
2023-10-12T12:05:06.103Z,4.28
2023-10-12T12:07:36.443Z,4.18
2023-10-12T12:10:06.043Z,4.50
2023-10-12T12:12:36.876Z,4.38
2023-10-12T12:15:03.713Z,3.70
2023-10-12T12:17:30.499Z,4.20
2023-10-12T12:19:57.330Z,4.20
2023-10-12T12:22:25.486Z,4.20
2023-10-12T12:24:52.214Z,3.85
2023-10-12T12:27:42.769Z,4.20
2023-10-12T12:30:50.801Z,4.38
2023-10-12T12:33:17.111Z,3.83
2023-10-12T12:35:46.699Z,4.22
2023-10-12T12:38:29.891Z,4.57
2023-10-12T12:40:57.522Z,4.28
2023-10-12T12:43:24.339Z,4.25
2023-10-12T12:45:51.108Z,4.30
2023-10-12T12:48:18.037Z,3.85
2023-10-12T12:50:45.711Z,3.83
2023-10-12T12:53:13.113Z,4.45
2023-10-12T12:55:40.263Z,4.68
2023-10-12T12:58:07.853Z,4.25
2023-10-12T13:00:35.132Z,4.72
2023-10-12T13:03:02.222Z,3.63
2023-10-12T13:05:32.585Z,4.05
2023-10-12T13:08:01.510Z,4.35
2023-10-12T13:10:28.434Z,4.43
2023-10-12T13:12:55.214Z,4.38
2023-10-12T13:15:24.334Z,4.63
2023-10-12T13:17:51.217Z,3.72
2023-10-12T13:20:30.375Z,4.25
2023-10-12T13:22:57.710Z,4.72
2023-10-12T13:25:27.584Z,4.30
2023-10-12T13:27:54.761Z,4.53
2023-10-12T13:30:22.317Z,4.47
2023-10-12T13:32:59.549Z,4.45
2023-10-12T13:35:47.039Z,4.20
2023-10-12T13:38:16.570Z,4.65
2023-10-12T13:40:47.900Z,4.05
2023-10-12T13:43:23.436Z,4.20
2023-10-12T13:45:51.180Z,5.00
2023-10-12T13:48:28.667Z,4.68
2023-10-12T13:51:01.580Z,4.55
2023-10-12T13:53:28.628Z,4.35
2023-10-12T13:55:57.899Z,4.65
2023-10-12T13:58:27.639Z,4.32
2023-10-12T14:00:55.924Z,4.97
2023-10-12T14:03:36.502Z,4.60
2023-10-12T14:06:04.108Z,4.60
2023-10-12T14:08:33.585Z,4.35
2023-10-12T14:11:05.107Z,4.63
2023-10-12T14:13:32.838Z,4.68
2023-10-12T14:16:00.374Z,5.38
2023-10-12T14:18:29.745Z,4.50
2023-10-12T14:20:57.154Z,4.95
2023-10-12T14:23:33.869Z,4.50
2023-10-12T14:26:01.704Z,4.43
2023-10-12T14:28:37.062Z,4.95
2023-10-12T14:31:07.633Z,4.85
2023-10-12T14:33:36.547Z,4.38
2023-10-12T14:36:07.087Z,4.22
2023-10-12T14:38:35.891Z,4.90
2023-10-12T14:41:11.316Z,4.95
2023-10-12T14:43:38.916Z,4.88
2023-10-12T14:46:06.693Z,4.93
2023-10-12T14:48:33.764Z,5.13
2023-10-12T14:51:14.257Z,4.90
2023-10-12T14:53:41.549Z,5.28
2023-10-12T14:56:09.427Z,4.80
2023-10-12T14:58:36.301Z,4.97
2023-10-12T15:01:09.550Z,4.88
2023-10-12T15:03:36.369Z,5.47
2023-10-12T15:06:04.323Z,5.60
2023-10-12T15:08:31.066Z,5.13
2023-10-12T15:10:58.077Z,4.97
2023-10-12T15:13:27.207Z,6.18
2023-10-12T15:15:55.070Z,5.95
2023-10-12T15:18:34.586Z,4.97
2023-10-12T15:21:11.990Z,5.13
2023-10-12T15:23:50.227Z,5.00
2023-10-12T15:26:18.156Z,5.55
2023-10-12T15:28:48.732Z,5.47
2023-10-12T15:31:18.085Z,5.22
2023-10-12T15:33:45.005Z,5.40
2023-10-12T15:36:15.525Z,5.63
2023-10-12T15:38:42.221Z,5.97
2023-10-12T15:41:13.746Z,6.10
2023-10-12T15:43:40.707Z,6.30
2023-10-12T15:46:11.391Z,5.53
2023-10-12T15:48:38.709Z,5.95
2023-10-12T15:51:05.465Z,5.30
2023-10-12T15:53:32.135Z,5.30
2023-10-12T15:55:58.884Z,5.07
2023-10-12T15:58:28.481Z,5.60
2023-10-12T16:00:55.663Z,5.45
2023-10-12T16:03:23.035Z,5.65
2023-10-12T16:05:51.136Z,5.80
2023-10-12T16:08:19.395Z,5.90
2023-10-12T16:10:50.641Z,5.90
2023-10-12T16:13:17.673Z,6.10
2023-10-12T16:15:44.782Z,5.65
2023-10-12T16:18:13.455Z,6.35
2023-10-12T16:20:40.848Z,5.82
2023-10-12T16:23:08.041Z,5.18
2023-10-12T16:25:35.022Z,5.88
2023-10-12T16:28:02.589Z,5.53
2023-10-12T16:30:35.996Z,6.13
2023-10-12T16:33:03.302Z,6.22
2023-10-12T16:35:30.273Z,6.05
2023-10-12T16:37:57.995Z,6.05
2023-10-12T16:40:26.857Z,6.05
2023-10-12T16:42:55.598Z,5.53
2023-10-12T16:45:24.348Z,5.75
2023-10-12T16:47:51.490Z,6.03
2023-10-12T16:50:21.477Z,5.25
2023-10-12T16:52:51.336Z,6.03
2023-10-12T16:55:18.882Z,5.70
2023-10-12T16:57:48.872Z,5.15
2023-10-12T17:00:16.997Z,5.53
2023-10-12T17:02:47.533Z,4.78
2023-10-12T17:05:15.817Z,4.85
2023-10-12T17:07:46.425Z,5.38
2023-10-12T17:10:25.190Z,4.72
2023-10-12T17:12:53.397Z,5.07
2023-10-12T17:15:20.765Z,5.00
2023-10-12T17:17:54.299Z,4.38
2023-10-12T17:20:21.613Z,4.82
2023-10-12T17:22:48.307Z,4.55
2023-10-12T17:25:15.102Z,4.85
2023-10-12T17:27:42.671Z,4.60
2023-10-12T17:30:12.778Z,4.22
2023-10-12T17:32:42.385Z,4.63
2023-10-12T17:35:15.633Z,4.00
2023-10-12T17:37:42.595Z,4.88
2023-10-12T17:40:11.536Z,4.05
2023-10-12T17:42:38.506Z,4.60
2023-10-12T17:45:11.175Z,4.03
2023-10-12T17:47:40.151Z,4.90
2023-10-12T17:50:14.543Z,3.83
2023-10-12T17:52:46.877Z,4.18
2023-10-12T17:55:19.812Z,4.45
2023-10-12T17:57:47.308Z,3.85
2023-10-12T18:00:20.591Z,4.30
2023-10-12T18:02:48.920Z,4.22
2023-10-12T18:05:16.180Z,4.47
2023-10-12T18:07:44.647Z,3.97
2023-10-12T18:10:17.057Z,4.40
2023-10-12T18:12:44.410Z,4.10
2023-10-12T18:15:13.527Z,5.65
2023-10-12T18:17:41.154Z,4.95
2023-10-12T18:20:16.037Z,4.55
2023-10-12T18:22:43.594Z,5.07
2023-10-12T18:25:10.776Z,4.20
2023-10-12T18:27:37.862Z,4.63
2023-10-12T18:30:06.555Z,4.70
2023-10-12T18:32:33.738Z,5.47
2023-10-12T18:35:01.511Z,5.80
2023-10-12T18:37:28.729Z,4.32
2023-10-12T18:39:55.561Z,4.72
2023-10-12T18:42:22.875Z,4.70
2023-10-12T18:44:50.685Z,4.90
2023-10-12T18:47:17.898Z,4.63
2023-10-12T18:49:52.661Z,4.75
2023-10-12T18:52:30.188Z,4.35
2023-10-12T18:54:57.192Z,4.50
2023-10-12T18:57:24.464Z,4.55
2023-10-12T18:59:51.120Z,4.70
2023-10-12T19:02:17.906Z,4.63
2023-10-12T19:04:44.907Z,4.40
2023-10-12T19:07:11.626Z,4.82
2023-10-12T19:09:38.389Z,5.25
2023-10-12T19:12:05.737Z,4.50
2023-10-12T19:14:34.370Z,4.65
2023-10-12T19:17:02.399Z,4.82
2023-10-12T19:19:30.247Z,4.63
2023-10-12T19:21:57.308Z,5.15
2023-10-12T19:24:24.280Z,4.78
2023-10-12T19:26:52.227Z,5.15
2023-10-12T19:29:19.159Z,5.00
2023-10-12T19:31:47.690Z,6.22
2023-10-12T19:34:15.283Z,5.28
2023-10-12T19:36:42.397Z,5.53
2023-10-12T19:39:11.978Z,4.80
2023-10-12T19:41:39.273Z,5.00
2023-10-12T19:44:07.418Z,5.10
2023-10-12T19:46:34.293Z,5.28
2023-10-12T19:49:01.178Z,4.82
2023-10-12T19:51:29.560Z,5.57
2023-10-12T19:53:57.230Z,5.07
2023-10-12T19:56:24.139Z,4.78
2023-10-12T19:58:53.019Z,4.45
2023-10-12T20:01:24.119Z,4.70
2023-10-12T20:03:51.682Z,4.78
2023-10-12T20:06:19.088Z,4.97
2023-10-12T20:08:49.169Z,5.15
2023-10-12T20:11:17.255Z,5.10
2023-10-12T20:13:46.586Z,4.63
2023-10-12T20:16:15.433Z,5.30
2023-10-12T20:18:47.639Z,5.18
2023-10-12T20:21:15.275Z,4.22
2023-10-12T20:23:42.681Z,4.15
2023-10-12T20:26:11.169Z,4.43
2023-10-12T20:28:38.780Z,4.03
2023-10-12T20:31:06.013Z,4.03
2023-10-12T20:33:33.112Z,4.53
2023-10-12T20:36:01.678Z,4.00
2023-10-12T20:38:36.483Z,3.95
2023-10-12T20:41:05.680Z,4.10
2023-10-12T20:43:35.923Z,3.88
2023-10-12T20:46:09.929Z,4.60
2023-10-12T20:48:37.376Z,3.97
2023-10-12T20:51:06.337Z,3.55
2023-10-12T20:53:37.689Z,4.20
2023-10-12T20:56:24.515Z,4.03
2023-10-12T20:58:59.529Z,3.90
2023-10-12T21:01:28.473Z,4.38
2023-10-12T21:03:56.210Z,4.13
2023-10-12T21:06:32.535Z,4.13
2023-10-12T21:09:02.752Z,3.92
2023-10-12T21:11:33.109Z,3.92
2023-10-12T21:14:02.199Z,4.10
2023-10-12T21:16:30.106Z,3.92
2023-10-12T21:19:22.931Z,4.18
2023-10-12T21:21:49.869Z,3.83
2023-10-12T21:24:19.711Z,3.50
2023-10-12T21:26:47.114Z,3.92
2023-10-12T21:29:20.211Z,3.90
2023-10-12T21:32:03.188Z,4.28
2023-10-12T21:34:33.230Z,3.75
2023-10-12T21:37:05.370Z,4.05
2023-10-12T21:40:05.564Z,3.90
2023-10-12T21:42:32.248Z,3.92
2023-10-12T21:44:59.081Z,3.90
2023-10-12T21:47:26.031Z,4.30
2023-10-12T21:49:53.613Z,4.05
2023-10-12T21:52:20.492Z,3.83
2023-10-12T21:54:49.677Z,4.97
2023-10-12T21:57:16.598Z,3.60
2023-10-12T21:59:43.330Z,4.03
2023-10-12T22:02:17.676Z,3.50
2023-10-12T22:04:47.480Z,3.58
2023-10-12T22:07:15.406Z,4.20
2023-10-12T22:09:46.523Z,3.70
2023-10-12T22:12:15.281Z,4.10
2023-10-12T22:15:01.631Z,4.03
2023-10-12T22:17:29.657Z,4.00
2023-10-12T22:19:57.952Z,3.83
2023-10-12T22:22:25.162Z,3.80
2023-10-12T22:24:54.580Z,4.18
2023-10-12T22:27:29.493Z,4.28
2023-10-12T22:29:57.012Z,4.72
2023-10-12T22:32:24.443Z,3.67
2023-10-12T22:34:52.387Z,4.15
2023-10-12T22:37:19.139Z,4.30
2023-10-12T22:39:50.222Z,3.85
2023-10-12T22:42:17.651Z,3.50
2023-10-12T22:44:44.529Z,4.25
2023-10-12T22:47:11.304Z,3.92
2023-10-12T22:49:38.101Z,3.53
2023-10-12T22:52:06.268Z,4.20
2023-10-12T22:54:36.158Z,3.88
2023-10-12T22:57:04.269Z,4.07
2023-10-12T22:59:31.939Z,3.95
2023-10-12T23:01:58.958Z,4.13
2023-10-12T23:04:26.078Z,3.58
2023-10-12T23:06:53.469Z,3.97
2023-10-12T23:09:20.776Z,4.28
2023-10-12T23:11:51.446Z,3.67
2023-10-12T23:14:29.094Z,4.13
2023-10-12T23:16:59.442Z,4.32
2023-10-12T23:19:45.363Z,4.55
2023-10-12T23:22:32.179Z,4.63
2023-10-12T23:24:59.418Z,4.20
2023-10-12T23:27:33.025Z,3.90
2023-10-12T23:30:00.891Z,3.83
2023-10-12T23:32:29.271Z,3.92
2023-10-12T23:34:56.298Z,4.38
2023-10-12T23:37:44.458Z,3.90
2023-10-12T23:40:22.091Z,3.30
2023-10-12T23:42:50.981Z,4.10
2023-10-12T23:45:36.581Z,4.05
2023-10-12T23:48:09.435Z,3.65
2023-10-12T23:50:38.532Z,3.50
2023-10-12T23:53:19.919Z,4.60
2023-10-12T23:55:47.823Z,3.90
2023-10-12T23:58:16.153Z,3.45
